sensor_id;sensor_type;location;lat;lon;timestamp;temperature;humidity
68801;SHT31;55784;50.734;7.086;2024-03-02T00:00:57;8.01;82.08
68801;SHT31;55784;50.734;7.086;2024-03-02T00:03:22;8.10;81.82
68801;SHT31;55784;50.734;7.086;2024-03-02T00:05:49;8.17;81.55
68801;SHT31;55784;50.734;7.086;2024-03-02T00:08:22;8.23;81.32
68801;SHT31;55784;50.734;7.086;2024-03-02T00:10:47;8.27;81.11
68801;SHT31;55784;50.734;7.086;2024-03-02T00:13:13;8.28;80.95
68801;SHT31;55784;50.734;7.086;2024-03-02T00:15:46;8.37;80.90
68801;SHT31;55784;50.734;7.086;2024-03-02T00:18:14;8.49;80.58
68801;SHT31;55784;50.734;7.086;2024-03-02T00:20:41;8.52;80.37
68801;SHT31;55784;50.734;7.086;2024-03-02T00:23:08;8.54;80.22
68801;SHT31;55784;50.734;7.086;2024-03-02T00:25:49;8.57;80.26
68801;SHT31;55784;50.734;7.086;2024-03-02T00:31:09;8.65;79.82
68801;SHT31;55784;50.734;7.086;2024-03-02T00:33:40;8.69;79.75
68801;SHT31;55784;50.734;7.086;2024-03-02T00:36:06;8.69;79.66
68801;SHT31;55784;50.734;7.086;2024-03-02T00:38:33;8.72;79.55
68801;SHT31;55784;50.734;7.086;2024-03-02T00:41:00;8.72;79.44
68801;SHT31;55784;50.734;7.086;2024-03-02T00:43:39;8.73;79.38
68801;SHT31;55784;50.734;7.086;2024-03-02T00:46:06;8.69;79.39
68801;SHT31;55784;50.734;7.086;2024-03-02T00:48:31;8.61;79.49
68801;SHT31;55784;50.734;7.086;2024-03-02T00:50:57;8.52;79.80
68801;SHT31;55784;50.734;7.086;2024-03-02T00:53:23;8.44;80.07
68801;SHT31;55784;50.734;7.086;2024-03-02T00:55:51;8.36;80.30
68801;SHT31;55784;50.734;7.086;2024-03-02T00:58:16;8.28;80.45
68801;SHT31;55784;50.734;7.086;2024-03-02T01:00:42;8.23;80.41
68801;SHT31;55784;50.734;7.086;2024-03-02T01:03:07;8.18;80.61
68801;SHT31;55784;50.734;7.086;2024-03-02T01:05:33;8.11;80.72
68801;SHT31;55784;50.734;7.086;2024-03-02T01:07:58;8.10;80.83
68801;SHT31;55784;50.734;7.086;2024-03-02T01:10:24;8.03;80.94
68801;SHT31;55784;50.734;7.086;2024-03-02T01:12:51;8.01;80.99
68801;SHT31;55784;50.734;7.086;2024-03-02T01:15:16;8.01;81.03
68801;SHT31;55784;50.734;7.086;2024-03-02T01:17:41;8.04;80.99
68801;SHT31;55784;50.734;7.086;2024-03-02T01:20:08;8.04;80.82
68801;SHT31;55784;50.734;7.086;2024-03-02T01:22:34;8.07;80.62
68801;SHT31;55784;50.734;7.086;2024-03-02T01:25:01;8.03;80.73
68801;SHT31;55784;50.734;7.086;2024-03-02T01:27:26;8.03;80.74
68801;SHT31;55784;50.734;7.086;2024-03-02T01:29:52;7.98;80.79
68801;SHT31;55784;50.734;7.086;2024-03-02T01:32:17;8.03;80.65
68801;SHT31;55784;50.734;7.086;2024-03-02T01:34:43;8.04;80.62
68801;SHT31;55784;50.734;7.086;2024-03-02T01:37:08;8.13;80.30
68801;SHT31;55784;50.734;7.086;2024-03-02T01:39:33;8.13;80.18
68801;SHT31;55784;50.734;7.086;2024-03-02T01:41:58;8.18;79.96
68801;SHT31;55784;50.734;7.086;2024-03-02T01:44:24;8.17;79.95
68801;SHT31;55784;50.734;7.086;2024-03-02T01:46:49;8.20;79.87
68801;SHT31;55784;50.734;7.086;2024-03-02T01:49:16;8.18;79.79
68801;SHT31;55784;50.734;7.086;2024-03-02T01:51:41;8.10;79.98
68801;SHT31;55784;50.734;7.086;2024-03-02T01:54:06;8.06;79.99
68801;SHT31;55784;50.734;7.086;2024-03-02T01:56:32;7.98;80.20
68801;SHT31;55784;50.734;7.086;2024-03-02T01:58:58;7.94;80.25
68801;SHT31;55784;50.734;7.086;2024-03-02T02:01:24;7.93;80.34
68801;SHT31;55784;50.734;7.086;2024-03-02T02:03:49;7.93;80.33
68801;SHT31;55784;50.734;7.086;2024-03-02T02:06:14;7.94;80.35
68801;SHT31;55784;50.734;7.086;2024-03-02T02:08:40;7.94;80.36
68801;SHT31;55784;50.734;7.086;2024-03-02T02:11:05;7.94;80.37
68801;SHT31;55784;50.734;7.086;2024-03-02T02:13:31;7.96;80.31
68801;SHT31;55784;50.734;7.086;2024-03-02T02:16:04;7.91;80.38
68801;SHT31;55784;50.734;7.086;2024-03-02T02:18:30;7.84;80.54
68801;SHT31;55784;50.734;7.086;2024-03-02T02:20:55;7.80;80.61
68801;SHT31;55784;50.734;7.086;2024-03-02T02:23:20;7.82;80.52
68801;SHT31;55784;50.734;7.086;2024-03-02T02:25:45;7.79;80.72
68801;SHT31;55784;50.734;7.086;2024-03-02T02:28:11;7.67;80.94
68801;SHT31;55784;50.734;7.086;2024-03-02T02:30:36;7.58;81.29
68801;SHT31;55784;50.734;7.086;2024-03-02T02:33:01;7.58;81.43
68801;SHT31;55784;50.734;7.086;2024-03-02T02:35:27;7.52;81.55
68801;SHT31;55784;50.734;7.086;2024-03-02T02:37:54;7.51;81.68
68801;SHT31;55784;50.734;7.086;2024-03-02T02:40:20;7.48;81.77
68801;SHT31;55784;50.734;7.086;2024-03-02T02:42:46;7.49;81.88
68801;SHT31;55784;50.734;7.086;2024-03-02T02:45:11;7.56;81.82
68801;SHT31;55784;50.734;7.086;2024-03-02T02:47:38;7.55;81.71
68801;SHT31;55784;50.734;7.086;2024-03-02T02:50:04;7.58;81.71
68801;SHT31;55784;50.734;7.086;2024-03-02T02:52:37;7.61;81.43
68801;SHT31;55784;50.734;7.086;2024-03-02T02:55:06;7.62;81.42
68801;SHT31;55784;50.734;7.086;2024-03-02T02:57:32;7.63;81.45
68801;SHT31;55784;50.734;7.086;2024-03-02T03:00:07;7.66;81.43
68801;SHT31;55784;50.734;7.086;2024-03-02T03:02:42;7.66;81.28
68801;SHT31;55784;50.734;7.086;2024-03-02T03:05:13;7.70;81.28
68801;SHT31;55784;50.734;7.086;2024-03-02T03:07:39;7.73;81.15
68801;SHT31;55784;50.734;7.086;2024-03-02T03:10:05;7.80;80.83
68801;SHT31;55784;50.734;7.086;2024-03-02T03:12:31;7.86;80.52
68801;SHT31;55784;50.734;7.086;2024-03-02T03:14:57;7.90;80.37
68801;SHT31;55784;50.734;7.086;2024-03-02T03:17:23;7.97;80.25
68801;SHT31;55784;50.734;7.086;2024-03-02T03:19:49;8.00;80.00
68801;SHT31;55784;50.734;7.086;2024-03-02T03:22:14;8.04;79.79
68801;SHT31;55784;50.734;7.086;2024-03-02T03:24:39;8.08;79.71
68801;SHT31;55784;50.734;7.086;2024-03-02T03:27:05;8.08;79.61
68801;SHT31;55784;50.734;7.086;2024-03-02T03:29:30;8.01;79.77
68801;SHT31;55784;50.734;7.086;2024-03-02T03:31:55;8.01;79.77
68801;SHT31;55784;50.734;7.086;2024-03-02T03:34:21;7.98;79.89
68801;SHT31;55784;50.734;7.086;2024-03-02T03:36:46;7.98;79.83
68801;SHT31;55784;50.734;7.086;2024-03-02T03:39:11;8.04;79.71
68801;SHT31;55784;50.734;7.086;2024-03-02T03:41:37;8.10;79.48
68801;SHT31;55784;50.734;7.086;2024-03-02T03:44:02;8.16;79.48
68801;SHT31;55784;50.734;7.086;2024-03-02T03:46:28;8.18;79.19
68801;SHT31;55784;50.734;7.086;2024-03-02T03:48:54;8.18;79.11
68801;SHT31;55784;50.734;7.086;2024-03-02T03:51:21;8.20;79.07
68801;SHT31;55784;50.734;7.086;2024-03-02T03:53:47;8.20;79.06
68801;SHT31;55784;50.734;7.086;2024-03-02T03:56:12;8.23;79.04
68801;SHT31;55784;50.734;7.086;2024-03-02T03:58:38;8.23;78.96
68801;SHT31;55784;50.734;7.086;2024-03-02T04:01:03;8.17;79.02
68801;SHT31;55784;50.734;7.086;2024-03-02T04:03:29;8.08;79.20
68801;SHT31;55784;50.734;7.086;2024-03-02T04:05:54;7.96;79.50
68801;SHT31;55784;50.734;7.086;2024-03-02T04:08:19;7.84;79.87
68801;SHT31;55784;50.734;7.086;2024-03-02T04:10:44;7.66;80.33
68801;SHT31;55784;50.734;7.086;2024-03-02T04:13:10;7.56;80.60
68801;SHT31;55784;50.734;7.086;2024-03-02T04:15:35;7.53;80.85
68801;SHT31;55784;50.734;7.086;2024-03-02T04:18:00;7.42;81.16
68801;SHT31;55784;50.734;7.086;2024-03-02T04:20:26;7.31;81.53
68801;SHT31;55784;50.734;7.086;2024-03-02T04:22:51;7.28;81.70
68801;SHT31;55784;50.734;7.086;2024-03-02T04:25:16;7.26;81.81
68801;SHT31;55784;50.734;7.086;2024-03-02T04:27:41;7.21;81.92
68801;SHT31;55784;50.734;7.086;2024-03-02T04:30:07;7.15;82.15
68801;SHT31;55784;50.734;7.086;2024-03-02T04:32:32;7.12;82.24
68801;SHT31;55784;50.734;7.086;2024-03-02T04:34:58;7.12;82.38
68801;SHT31;55784;50.734;7.086;2024-03-02T04:37:23;7.15;82.51
68801;SHT31;55784;50.734;7.086;2024-03-02T04:39:48;7.18;82.44
68801;SHT31;55784;50.734;7.086;2024-03-02T04:42:13;7.19;82.26
68801;SHT31;55784;50.734;7.086;2024-03-02T04:44:39;7.19;82.25
68801;SHT31;55784;50.734;7.086;2024-03-02T04:47:04;7.33;82.13
68801;SHT31;55784;50.734;7.086;2024-03-02T04:49:30;7.32;81.94
68801;SHT31;55784;50.734;7.086;2024-03-02T04:51:55;7.31;82.03
68801;SHT31;55784;50.734;7.086;2024-03-02T04:54:22;7.28;82.03
68801;SHT31;55784;50.734;7.086;2024-03-02T04:56:47;7.29;82.17
68801;SHT31;55784;50.734;7.086;2024-03-02T04:59:16;7.22;82.25
68801;SHT31;55784;50.734;7.086;2024-03-02T05:01:42;7.22;82.38
68801;SHT31;55784;50.734;7.086;2024-03-02T05:04:08;7.21;82.24
68801;SHT31;55784;50.734;7.086;2024-03-02T05:06:33;7.19;82.27
68801;SHT31;55784;50.734;7.086;2024-03-02T05:08:59;7.18;82.45
68801;SHT31;55784;50.734;7.086;2024-03-02T05:11:24;7.21;82.31
68801;SHT31;55784;50.734;7.086;2024-03-02T05:14:05;7.29;82.20
68801;SHT31;55784;50.734;7.086;2024-03-02T05:16:34;7.36;82.01
68801;SHT31;55784;50.734;7.086;2024-03-02T05:19:00;7.45;81.80
68801;SHT31;55784;50.734;7.086;2024-03-02T05:21:25;7.35;81.74
68801;SHT31;55784;50.734;7.086;2024-03-02T05:23:50;7.26;81.92
68801;SHT31;55784;50.734;7.086;2024-03-02T05:26:16;7.14;82.23
68801;SHT31;55784;50.734;7.086;2024-03-02T05:28:42;7.05;82.56
68801;SHT31;55784;50.734;7.086;2024-03-02T05:31:10;6.94;83.00
68801;SHT31;55784;50.734;7.086;2024-03-02T05:33:37;6.88;83.20
68801;SHT31;55784;50.734;7.086;2024-03-02T05:36:03;6.77;83.56
68801;SHT31;55784;50.734;7.086;2024-03-02T05:38:29;6.74;83.80
68801;SHT31;55784;50.734;7.086;2024-03-02T05:40:54;6.64;83.99
68801;SHT31;55784;50.734;7.086;2024-03-02T05:43:20;6.63;84.25
68801;SHT31;55784;50.734;7.086;2024-03-02T05:45:45;6.58;84.29
68801;SHT31;55784;50.734;7.086;2024-03-02T05:48:10;6.56;84.51
68801;SHT31;55784;50.734;7.086;2024-03-02T05:50:36;6.51;84.51
68801;SHT31;55784;50.734;7.086;2024-03-02T05:53:01;6.47;84.70
68801;SHT31;55784;50.734;7.086;2024-03-02T05:55:26;6.41;84.84
68801;SHT31;55784;50.734;7.086;2024-03-02T05:57:52;6.39;85.04
68801;SHT31;55784;50.734;7.086;2024-03-02T06:00:32;6.41;85.07
68801;SHT31;55784;50.734;7.086;2024-03-02T06:02:58;6.46;85.04
68801;SHT31;55784;50.734;7.086;2024-03-02T06:05:24;6.47;85.01
68801;SHT31;55784;50.734;7.086;2024-03-02T06:07:50;6.50;84.88
68801;SHT31;55784;50.734;7.086;2024-03-02T06:10:15;6.57;84.70
68801;SHT31;55784;50.734;7.086;2024-03-02T06:12:40;6.61;84.68
68801;SHT31;55784;50.734;7.086;2024-03-02T06:15:06;6.61;84.47
68801;SHT31;55784;50.734;7.086;2024-03-02T06:17:32;6.67;84.45
68801;SHT31;55784;50.734;7.086;2024-03-02T06:19:57;6.73;84.26
68801;SHT31;55784;50.734;7.086;2024-03-02T06:22:23;6.74;84.24
68801;SHT31;55784;50.734;7.086;2024-03-02T06:24:50;6.80;84.16
68801;SHT31;55784;50.734;7.086;2024-03-02T06:27:15;6.87;84.06
68801;SHT31;55784;50.734;7.086;2024-03-02T06:29:40;6.91;83.96
68801;SHT31;55784;50.734;7.086;2024-03-02T06:32:06;6.97;83.81
68801;SHT31;55784;50.734;7.086;2024-03-02T06:34:31;7.00;83.66
68801;SHT31;55784;50.734;7.086;2024-03-02T06:36:56;7.04;83.65
68801;SHT31;55784;50.734;7.086;2024-03-02T06:39:22;7.07;83.54
68801;SHT31;55784;50.734;7.086;2024-03-02T06:41:47;7.08;83.49
68801;SHT31;55784;50.734;7.086;2024-03-02T06:44:13;7.09;83.62
68801;SHT31;55784;50.734;7.086;2024-03-02T06:46:38;7.11;83.57
68801;SHT31;55784;50.734;7.086;2024-03-02T06:49:04;7.26;83.25
68801;SHT31;55784;50.734;7.086;2024-03-02T06:51:29;7.31;83.16
68801;SHT31;55784;50.734;7.086;2024-03-02T06:53:55;7.39;82.79
68801;SHT31;55784;50.734;7.086;2024-03-02T06:56:20;7.49;82.59
68801;SHT31;55784;50.734;7.086;2024-03-02T06:58:46;7.61;82.37
68801;SHT31;55784;50.734;7.086;2024-03-02T07:01:12;7.62;82.13
68801;SHT31;55784;50.734;7.086;2024-03-02T07:03:37;7.66;82.01
68801;SHT31;55784;50.734;7.086;2024-03-02T07:06:04;7.63;82.18
68801;SHT31;55784;50.734;7.086;2024-03-02T07:08:30;7.66;81.93
68801;SHT31;55784;50.734;7.086;2024-03-02T07:10:55;7.66;82.00
68801;SHT31;55784;50.734;7.086;2024-03-02T07:13:22;7.66;82.24
68801;SHT31;55784;50.734;7.086;2024-03-02T07:15:48;7.67;82.67
68801;SHT31;55784;50.734;7.086;2024-03-02T07:18:29;7.72;82.51
68801;SHT31;55784;50.734;7.086;2024-03-02T07:20:55;7.72;82.25
68801;SHT31;55784;50.734;7.086;2024-03-02T07:23:23;7.76;81.93
68801;SHT31;55784;50.734;7.086;2024-03-02T07:25:52;7.83;81.86
68801;SHT31;55784;50.734;7.086;2024-03-02T07:28:19;7.96;81.50
68801;SHT31;55784;50.734;7.086;2024-03-02T07:30:45;8.03;81.49
68801;SHT31;55784;50.734;7.086;2024-03-02T07:33:10;8.14;81.37
68801;SHT31;55784;50.734;7.086;2024-03-02T07:35:36;8.27;80.78
68801;SHT31;55784;50.734;7.086;2024-03-02T07:38:01;8.33;80.74
68801;SHT31;55784;50.734;7.086;2024-03-02T07:40:26;8.45;80.40
68801;SHT31;55784;50.734;7.086;2024-03-02T07:42:52;8.65;79.87
68801;SHT31;55784;50.734;7.086;2024-03-02T07:45:17;8.78;79.28
68801;SHT31;55784;50.734;7.086;2024-03-02T07:47:43;8.88;78.70
68801;SHT31;55784;50.734;7.086;2024-03-02T07:50:08;8.95;78.68
68801;SHT31;55784;50.734;7.086;2024-03-02T07:52:34;8.98;78.29
68801;SHT31;55784;50.734;7.086;2024-03-02T07:54:59;9.06;78.51
68801;SHT31;55784;50.734;7.086;2024-03-02T07:57:25;9.09;78.10
68801;SHT31;55784;50.734;7.086;2024-03-02T07:59:50;9.15;78.33
68801;SHT31;55784;50.734;7.086;2024-03-02T08:02:16;9.18;78.35
68801;SHT31;55784;50.734;7.086;2024-03-02T08:04:41;9.22;78.33
68801;SHT31;55784;50.734;7.086;2024-03-02T08:07:07;9.26;78.22
68801;SHT31;55784;50.734;7.086;2024-03-02T08:09:32;9.29;78.15
68801;SHT31;55784;50.734;7.086;2024-03-02T08:11:57;9.36;78.12
68801;SHT31;55784;50.734;7.086;2024-03-02T08:14:23;9.44;78.05
68801;SHT31;55784;50.734;7.086;2024-03-02T08:16:49;9.55;78.03
68801;SHT31;55784;50.734;7.086;2024-03-02T08:19:14;9.63;77.45
68801;SHT31;55784;50.734;7.086;2024-03-02T08:21:39;9.75;77.26
68801;SHT31;55784;50.734;7.086;2024-03-02T08:24:05;9.91;77.05
68801;SHT31;55784;50.734;7.086;2024-03-02T08:26:31;10.12;76.12
68801;SHT31;55784;50.734;7.086;2024-03-02T08:28:57;10.29;75.24
68801;SHT31;55784;50.734;7.086;2024-03-02T08:31:23;10.48;74.69
68801;SHT31;55784;50.734;7.086;2024-03-02T08:33:48;10.76;74.40
68801;SHT31;55784;50.734;7.086;2024-03-02T08:36:13;10.96;73.47
68801;SHT31;55784;50.734;7.086;2024-03-02T08:38:39;11.13;73.20
68801;SHT31;55784;50.734;7.086;2024-03-02T08:41:04;11.31;72.96
68801;SHT31;55784;50.734;7.086;2024-03-02T08:43:30;11.38;72.16
68801;SHT31;55784;50.734;7.086;2024-03-02T08:45:56;11.38;71.63
68801;SHT31;55784;50.734;7.086;2024-03-02T08:48:21;11.38;71.93
68801;SHT31;55784;50.734;7.086;2024-03-02T08:50:46;11.24;72.02
68801;SHT31;55784;50.734;7.086;2024-03-02T08:53:12;11.19;71.87
68801;SHT31;55784;50.734;7.086;2024-03-02T08:55:37;11.16;72.47
68801;SHT31;55784;50.734;7.086;2024-03-02T08:58:03;11.13;72.37
68801;SHT31;55784;50.734;7.086;2024-03-02T09:00:28;11.14;72.37
68801;SHT31;55784;50.734;7.086;2024-03-02T09:02:53;11.14;72.36
68801;SHT31;55784;50.734;7.086;2024-03-02T09:05:19;11.17;72.21
68801;SHT31;55784;50.734;7.086;2024-03-02T09:07:44;11.13;72.04
68801;SHT31;55784;50.734;7.086;2024-03-02T09:10:13;11.17;71.89
68801;SHT31;55784;50.734;7.086;2024-03-02T09:12:38;11.28;71.92
68801;SHT31;55784;50.734;7.086;2024-03-02T09:15:05;11.32;71.67
68801;SHT31;55784;50.734;7.086;2024-03-02T09:17:33;11.37;71.44
68801;SHT31;55784;50.734;7.086;2024-03-02T09:19:59;11.35;71.08
68801;SHT31;55784;50.734;7.086;2024-03-02T09:22:24;11.35;71.08
68801;SHT31;55784;50.734;7.086;2024-03-02T09:24:49;11.44;71.45
68801;SHT31;55784;50.734;7.086;2024-03-02T09:27:15;11.48;71.23
68801;SHT31;55784;50.734;7.086;2024-03-02T09:29:40;11.55;70.88
68801;SHT31;55784;50.734;7.086;2024-03-02T09:35:27;11.89;70.11
68801;SHT31;55784;50.734;7.086;2024-03-02T09:37:53;12.08;69.86
68801;SHT31;55784;50.734;7.086;2024-03-02T09:40:21;12.16;69.41
68801;SHT31;55784;50.734;7.086;2024-03-02T09:42:47;12.29;68.94
68801;SHT31;55784;50.734;7.086;2024-03-02T09:45:24;12.34;68.89
68801;SHT31;55784;50.734;7.086;2024-03-02T09:47:50;12.50;68.71
68801;SHT31;55784;50.734;7.086;2024-03-02T09:50:17;12.61;68.08
68801;SHT31;55784;50.734;7.086;2024-03-02T09:52:43;12.77;67.49
68801;SHT31;55784;50.734;7.086;2024-03-02T09:55:09;12.80;67.34
68801;SHT31;55784;50.734;7.086;2024-03-02T09:57:34;12.86;67.24
68801;SHT31;55784;50.734;7.086;2024-03-02T09:59:59;12.97;66.98
68801;SHT31;55784;50.734;7.086;2024-03-02T10:02:25;13.03;67.07
68801;SHT31;55784;50.734;7.086;2024-03-02T10:04:51;13.10;66.83
68801;SHT31;55784;50.734;7.086;2024-03-02T10:07:19;13.05;66.91
68801;SHT31;55784;50.734;7.086;2024-03-02T10:09:45;13.18;66.83
68801;SHT31;55784;50.734;7.086;2024-03-02T10:12:13;13.12;66.61
68801;SHT31;55784;50.734;7.086;2024-03-02T10:14:39;13.15;66.88
68801;SHT31;55784;50.734;7.086;2024-03-02T10:17:09;13.03;66.83
68801;SHT31;55784;50.734;7.086;2024-03-02T10:19:36;13.08;67.06
68801;SHT31;55784;50.734;7.086;2024-03-02T10:22:03;13.11;66.92
68801;SHT31;55784;50.734;7.086;2024-03-02T10:24:35;13.12;67.26
68801;SHT31;55784;50.734;7.086;2024-03-02T10:27:06;13.18;67.11
68801;SHT31;55784;50.734;7.086;2024-03-02T10:29:33;13.17;67.39
68801;SHT31;55784;50.734;7.086;2024-03-02T10:32:02;13.24;67.10
68801;SHT31;55784;50.734;7.086;2024-03-02T10:34:27;13.24;66.91
68801;SHT31;55784;50.734;7.086;2024-03-02T10:36:54;13.29;67.24
68801;SHT31;55784;50.734;7.086;2024-03-02T10:39:20;13.32;67.06
68801;SHT31;55784;50.734;7.086;2024-03-02T10:41:49;13.34;66.53
68801;SHT31;55784;50.734;7.086;2024-03-02T10:44:15;13.39;66.56
68801;SHT31;55784;50.734;7.086;2024-03-02T10:46:41;13.47;66.70
68801;SHT31;55784;50.734;7.086;2024-03-02T10:49:08;13.38;66.53
68801;SHT31;55784;50.734;7.086;2024-03-02T10:51:34;13.31;66.85
68801;SHT31;55784;50.734;7.086;2024-03-02T10:54:02;13.24;66.80
68801;SHT31;55784;50.734;7.086;2024-03-02T10:56:33;13.31;66.79
68801;SHT31;55784;50.734;7.086;2024-03-02T10:59:02;13.35;66.82
68801;SHT31;55784;50.734;7.086;2024-03-02T11:01:30;13.41;66.99
68801;SHT31;55784;50.734;7.086;2024-03-02T11:03:57;13.59;66.40
68801;SHT31;55784;50.734;7.086;2024-03-02T11:06:23;13.82;66.17
68801;SHT31;55784;50.734;7.086;2024-03-02T11:08:50;14.16;65.73
68801;SHT31;55784;50.734;7.086;2024-03-02T11:11:22;14.31;65.06
68801;SHT31;55784;50.734;7.086;2024-03-02T11:13:52;14.43;64.77
68801;SHT31;55784;50.734;7.086;2024-03-02T11:16:30;14.63;64.34
68801;SHT31;55784;50.734;7.086;2024-03-02T11:19:06;14.74;63.68
68801;SHT31;55784;50.734;7.086;2024-03-02T11:21:36;14.78;63.88
68801;SHT31;55784;50.734;7.086;2024-03-02T11:24:28;14.92;63.63
68801;SHT31;55784;50.734;7.086;2024-03-02T11:26:57;15.01;63.24
68801;SHT31;55784;50.734;7.086;2024-03-02T11:32:04;15.15;63.11
68801;SHT31;55784;50.734;7.086;2024-03-02T11:34:30;15.16;62.69
68801;SHT31;55784;50.734;7.086;2024-03-02T11:36:55;15.11;62.98
68801;SHT31;55784;50.734;7.086;2024-03-02T11:39:21;15.01;62.63
68801;SHT31;55784;50.734;7.086;2024-03-02T11:41:47;15.06;63.31
68801;SHT31;55784;50.734;7.086;2024-03-02T11:44:14;14.88;63.38
68801;SHT31;55784;50.734;7.086;2024-03-02T11:46:40;14.82;63.71
68801;SHT31;55784;50.734;7.086;2024-03-02T11:49:05;14.74;64.19
68801;SHT31;55784;50.734;7.086;2024-03-02T11:51:33;14.72;64.07
68801;SHT31;55784;50.734;7.086;2024-03-02T11:54:01;14.71;63.95
68801;SHT31;55784;50.734;7.086;2024-03-02T11:56:28;14.85;64.13
68801;SHT31;55784;50.734;7.086;2024-03-02T11:58:55;15.09;63.43
68801;SHT31;55784;50.734;7.086;2024-03-02T12:01:21;15.26;62.74
68801;SHT31;55784;50.734;7.086;2024-03-02T12:03:47;15.50;62.63
68801;SHT31;55784;50.734;7.086;2024-03-02T12:06:13;15.52;62.01
68801;SHT31;55784;50.734;7.086;2024-03-02T12:08:39;15.35;62.45
68801;SHT31;55784;50.734;7.086;2024-03-02T12:11:04;15.35;63.00
68801;SHT31;55784;50.734;7.086;2024-03-02T12:13:31;15.57;62.62
68801;SHT31;55784;50.734;7.086;2024-03-02T12:15:57;15.52;62.59
68801;SHT31;55784;50.734;7.086;2024-03-02T12:18:22;15.50;62.55
68801;SHT31;55784;50.734;7.086;2024-03-02T12:20:49;15.71;62.42
68801;SHT31;55784;50.734;7.086;2024-03-02T12:23:18;15.69;62.09
68801;SHT31;55784;50.734;7.086;2024-03-02T12:25:43;15.71;62.56
68801;SHT31;55784;50.734;7.086;2024-03-02T12:28:09;15.56;62.25
68801;SHT31;55784;50.734;7.086;2024-03-02T12:30:35;15.60;62.30
68801;SHT31;55784;50.734;7.086;2024-03-02T12:33:01;15.63;61.99
68801;SHT31;55784;50.734;7.086;2024-03-02T12:35:26;15.70;62.15
68801;SHT31;55784;50.734;7.086;2024-03-02T12:37:52;15.74;62.28
68801;SHT31;55784;50.734;7.086;2024-03-02T12:40:19;15.77;62.06
68801;SHT31;55784;50.734;7.086;2024-03-02T12:42:48;15.80;62.05
68801;SHT31;55784;50.734;7.086;2024-03-02T12:45:15;15.71;61.70
68801;SHT31;55784;50.734;7.086;2024-03-02T12:47:41;15.87;61.57
68801;SHT31;55784;50.734;7.086;2024-03-02T12:50:09;16.00;61.54
68801;SHT31;55784;50.734;7.086;2024-03-02T12:52:35;16.07;61.14
68801;SHT31;55784;50.734;7.086;2024-03-02T12:55:07;16.10;60.99
68801;SHT31;55784;50.734;7.086;2024-03-02T12:57:33;16.03;61.29
68801;SHT31;55784;50.734;7.086;2024-03-02T13:00:00;16.01;61.40
68801;SHT31;55784;50.734;7.086;2024-03-02T13:02:29;15.89;61.47
68801;SHT31;55784;50.734;7.086;2024-03-02T13:04:56;15.79;61.64
68801;SHT31;55784;50.734;7.086;2024-03-02T13:07:23;15.74;61.70
68801;SHT31;55784;50.734;7.086;2024-03-02T13:09:49;15.82;61.57
68801;SHT31;55784;50.734;7.086;2024-03-02T13:12:16;16.00;61.28
68801;SHT31;55784;50.734;7.086;2024-03-02T13:14:41;16.13;61.16
68801;SHT31;55784;50.734;7.086;2024-03-02T13:17:08;16.37;60.60
68801;SHT31;55784;50.734;7.086;2024-03-02T13:19:34;16.30;60.28
68801;SHT31;55784;50.734;7.086;2024-03-02T13:21:59;16.17;60.32
68801;SHT31;55784;50.734;7.086;2024-03-02T13:24:27;16.08;60.81
68801;SHT31;55784;50.734;7.086;2024-03-02T13:26:54;16.10;60.71
68801;SHT31;55784;50.734;7.086;2024-03-02T13:29:22;16.01;60.59
68801;SHT31;55784;50.734;7.086;2024-03-02T13:31:47;16.07;60.46
68801;SHT31;55784;50.734;7.086;2024-03-02T13:34:13;16.14;60.21
68801;SHT31;55784;50.734;7.086;2024-03-02T13:36:38;16.35;59.96
68801;SHT31;55784;50.734;7.086;2024-03-02T13:39:04;16.47;59.69
68801;SHT31;55784;50.734;7.086;2024-03-02T13:41:31;16.49;59.75
68801;SHT31;55784;50.734;7.086;2024-03-02T13:43:57;16.57;60.08
68801;SHT31;55784;50.734;7.086;2024-03-02T13:46:22;16.71;59.00
68801;SHT31;55784;50.734;7.086;2024-03-02T13:48:47;16.83;58.36
68801;SHT31;55784;50.734;7.086;2024-03-02T13:51:13;17.03;58.10
68801;SHT31;55784;50.734;7.086;2024-03-02T13:53:38;17.05;57.62
68801;SHT31;55784;50.734;7.086;2024-03-02T13:56:03;16.99;57.44
68801;SHT31;55784;50.734;7.086;2024-03-02T13:58:29;17.10;57.35
68801;SHT31;55784;50.734;7.086;2024-03-02T14:00:55;17.03;57.24
68801;SHT31;55784;50.734;7.086;2024-03-02T14:03:21;17.02;56.95
68801;SHT31;55784;50.734;7.086;2024-03-02T14:05:47;17.03;56.77
68801;SHT31;55784;50.734;7.086;2024-03-02T14:08:15;17.05;56.91
68801;SHT31;55784;50.734;7.086;2024-03-02T14:10:41;17.12;56.83
68801;SHT31;55784;50.734;7.086;2024-03-02T14:13:08;17.03;56.96
68801;SHT31;55784;50.734;7.086;2024-03-02T14:15:33;16.71;57.39
68801;SHT31;55784;50.734;7.086;2024-03-02T14:17:58;16.68;57.14
68801;SHT31;55784;50.734;7.086;2024-03-02T14:20:24;16.62;57.29
68801;SHT31;55784;50.734;7.086;2024-03-02T14:22:49;16.55;57.29
68801;SHT31;55784;50.734;7.086;2024-03-02T14:25:14;16.38;57.38
68801;SHT31;55784;50.734;7.086;2024-03-02T14:27:40;16.10;58.12
68801;SHT31;55784;50.734;7.086;2024-03-02T14:30:06;16.01;58.67
68801;SHT31;55784;50.734;7.086;2024-03-02T14:32:32;15.89;59.08
68801;SHT31;55784;50.734;7.086;2024-03-02T14:34:57;15.79;59.35
68801;SHT31;55784;50.734;7.086;2024-03-02T14:37:22;15.65;59.56
68801;SHT31;55784;50.734;7.086;2024-03-02T14:39:48;15.55;59.53
68801;SHT31;55784;50.734;7.086;2024-03-02T14:42:13;15.52;59.81
68801;SHT31;55784;50.734;7.086;2024-03-02T14:44:38;15.53;59.95
68801;SHT31;55784;50.734;7.086;2024-03-02T14:47:04;15.49;59.93
68801;SHT31;55784;50.734;7.086;2024-03-02T14:49:30;15.52;59.81
68801;SHT31;55784;50.734;7.086;2024-03-02T14:51:55;15.49;60.18
68801;SHT31;55784;50.734;7.086;2024-03-02T14:54:21;15.46;60.18
68801;SHT31;55784;50.734;7.086;2024-03-02T14:56:46;15.52;59.83
68801;SHT31;55784;50.734;7.086;2024-03-02T14:59:12;15.55;59.91
68801;SHT31;55784;50.734;7.086;2024-03-02T15:01:37;15.63;59.90
68801;SHT31;55784;50.734;7.086;2024-03-02T15:04:02;15.65;59.57
68801;SHT31;55784;50.734;7.086;2024-03-02T15:06:28;15.66;59.90
68801;SHT31;55784;50.734;7.086;2024-03-02T15:08:53;15.66;59.80
68801;SHT31;55784;50.734;7.086;2024-03-02T15:11:20;15.70;59.47
68801;SHT31;55784;50.734;7.086;2024-03-02T15:13:45;15.69;59.57
68801;SHT31;55784;50.734;7.086;2024-03-02T15:16:11;15.83;59.25
68801;SHT31;55784;50.734;7.086;2024-03-02T15:18:36;15.90;58.88
68801;SHT31;55784;50.734;7.086;2024-03-02T15:21:02;15.93;58.95
68801;SHT31;55784;50.734;7.086;2024-03-02T15:23:27;15.83;58.94
68801;SHT31;55784;50.734;7.086;2024-03-02T15:25:55;15.89;58.67
68801;SHT31;55784;50.734;7.086;2024-03-02T15:28:20;15.70;58.98
68801;SHT31;55784;50.734;7.086;2024-03-02T15:30:45;15.62;59.34
68801;SHT31;55784;50.734;7.086;2024-03-02T15:33:11;15.47;59.55
68801;SHT31;55784;50.734;7.086;2024-03-02T15:35:36;15.36;59.86
68801;SHT31;55784;50.734;7.086;2024-03-02T15:38:01;15.28;60.33
68801;SHT31;55784;50.734;7.086;2024-03-02T15:40:27;15.28;60.31
68801;SHT31;55784;50.734;7.086;2024-03-02T15:42:53;15.22;60.50